KCNM/CNM METAR and TAF weather

Enter ICAO airport designator
Station Type Date Time Source
KCNM METAR 2022/05/24 12:53 UTC NOAA

KCNM 241253Z AUTO 30013KT 10SM CLR 18/11 A2980 RMK AO2 SLP036 T01780106


Station Type Date Time Source
KCNM Decoded METAR 2022/05/24 12:53 UTC NOAA

CARLSBAD CAVERN CITY, NM, United States (KCNM) 32-20N 104-16W 985M
May 24, 2022 - 08:53 AM EDT / 2022.05.24 1253 UTC
Wind: from the WNW (300 degrees) at 15 MPH (13 KT):0
Visibility: 10 mile(s):0
Sky conditions: clear
Temperature: 64.0 F (17.8 C)
Dew Point: 51.1 F (10.6 C)
Relative Humidity: 62%
Pressure (altimeter): 29.8 in. Hg (1009 hPa)
ob: KCNM 241253Z AUTO 30013KT 10SM CLR 18/11 A2980 RMK AO2 SLP036 T01780106
cycle: 13

Station Type Date Time Source
KCNM TAF 2022/05/24 13:33 UTC NOAA

TAF
AMD KCNM 241231Z 2413/2512 33006KT P6SM SCT010 SCT025
FM241500 33008KT P6SM BKN250
FM242000 33020G28KT P6SM BKN250
FM250400 34012KT P6SM SCT250

Example: see airport list